Time;durP1;ratioP1;P1;durP2;ratioP2;P2;SDS_P1;SDS_P2;PMS_P1;PMS_P2;Temp;Humidity;BMP_temperature;BMP_pressure;BME280_temperature;BME280_humidity;BME280_pressure;Samples;Min_cycle;Max_cycle;Signal;HPM_P1;HPM_P2
2024/02/22 00:02:01;;;;;;;57.95;33.33;;;;;;;10.11;82.54;98574.56;6204976;22;20014;-68
2024/02/22 00:04:27;;;;;;;53.15;32.83;;;;;;;9.98;82.23;98580.06;6231794;22;20007;-68
2024/02/22 00:06:52;;;;;;;58.92;34.28;;;;;;;10.05;81.21;98577.69;6231178;22;20018;-69
2024/02/22 00:09:18;;;;;;;59.70;33.63;;;;;;;9.97;81.11;98570.63;6204672;22;20004;-68
2024/02/22 00:11:45;;;;;;;55.55;33.38;;;;;;;9.82;81.78;98533.91;6230145;22;20096;-70
2024/02/22 00:14:14;;;;;;;58.78;33.65;;;;;;;9.97;81.87;98564.63;6228509;22;20061;-70
2024/02/22 00:16:39;;;;;;;54.17;32.72;;;;;;;9.91;82.01;98567.75;6232136;22;20355;-70
2024/02/22 00:19:05;;;;;;;53.53;32.08;;;;;;;9.96;81.40;98561.19;6231117;22;20003;-69
2024/02/22 00:21:30;;;;;;;54.92;33.40;;;;;;;10.03;81.28;98565.81;6204713;22;20015;-70
2024/02/22 00:23:55;;;;;;;56.83;32.53;;;;;;;10.16;81.82;98571.50;6206012;22;20042;-69
2024/02/22 00:26:21;;;;;;;57.72;33.20;;;;;;;10.16;82.11;98566.31;6203899;22;20011;-68
2024/02/22 00:28:48;;;;;;;55.03;32.80;;;;;;;9.97;82.06;98529.06;6203728;22;20604;-72
2024/02/22 00:31:14;;;;;;;60.05;34.90;;;;;;;9.90;82.71;98525.41;6229111;22;20008;-70
2024/02/22 00:33:39;;;;;;;53.42;33.90;;;;;;;10.12;83.25;98568.38;6203826;22;20007;-71
2024/02/22 00:36:05;;;;;;;55.10;32.60;;;;;;;10.03;85.84;98566.63;6203872;22;20012;-72
2024/02/22 00:38:32;;;;;;;57.20;33.47;;;;;;;10.03;86.13;98564.03;6228849;22;20057;-69
2024/02/22 00:40:59;;;;;;;56.55;33.30;;;;;;;9.65;86.74;98516.44;6204528;22;20023;-69
2024/02/22 00:43:25;;;;;;;54.95;31.85;;;;;;;9.77;87.87;98559.47;6230314;22;20022;-70
2024/02/22 00:45:50;;;;;;;54.47;33.45;;;;;;;9.68;88.88;98543.94;6257741;22;20012;-69
2024/02/22 00:48:16;;;;;;;54.45;32.97;;;;;;;9.62;89.56;98542.72;6205122;22;20008;-71
2024/02/22 00:50:41;;;;;;;55.85;33.10;;;;;;;9.60;90.91;98552.38;6205183;22;20011;-69
2024/02/22 00:53:07;;;;;;;58.25;32.95;;;;;;;9.37;91.86;98508.59;6230668;22;20046;-71
2024/02/22 00:55:32;;;;;;;54.33;32.85;;;;;;;9.70;92.06;98539.41;6229964;22;20472;-69
2024/02/22 00:57:57;;;;;;;53.33;31.92;;;;;;;9.78;91.09;98529.13;6229445;22;20429;-72
2024/02/22 01:00:23;;;;;;;56.50;32.80;;;;;;;9.78;90.84;98518.72;6230137;22;20004;-70
2024/02/22 01:02:48;;;;;;;55.80;32.30;;;;;;;9.58;91.98;98494.59;6230252;22;20004;-67
2024/02/22 01:05:14;;;;;;;55.58;32.83;;;;;;;9.68;91.90;98503.19;6230347;22;20541;-69
2024/02/22 01:07:39;;;;;;;55.65;32.97;;;;;;;9.74;91.92;98507.81;6230712;22;20015;-70
2024/02/22 01:10:05;;;;;;;59.28;33.38;;;;;;;9.89;91.97;98502.16;6205404;22;20094;-72
2024/02/22 01:12:31;;;;;;;57.53;32.78;;;;;;;9.80;92.40;98499.47;6230267;22;20019;-72
2024/02/22 01:14:56;;;;;;;54.17;34.42;;;;;;;9.57;92.70;98448.84;6230971;22;20018;-70
2024/02/22 01:17:21;;;;;;;56.25;33.95;;;;;;;9.86;92.57;98492.06;6231205;22;20007;-69
2024/02/22 01:19:47;;;;;;;54.10;34.10;;;;;;;9.86;92.67;98481.69;6257558;22;20008;-69
2024/02/22 01:22:13;;;;;;;58.47;35.13;;;;;;;9.92;92.46;98486.31;6230650;22;20087;-70
2024/02/22 01:24:40;;;;;;;55.67;33.97;;;;;;;9.90;91.79;98493.41;6230435;22;20011;-72
2024/02/22 01:27:08;;;;;;;59.22;35.28;;;;;;;9.86;91.40;98482.50;6229500;22;20039;-71
2024/02/22 01:29:34;;;;;;;60.15;34.85;;;;;;;9.73;91.68;98487.19;6205294;22;19999;-69
2024/02/22 01:32:02;;;;;;;56.42;33.90;;;;;;;9.66;91.74;98488.72;6257229;22;20004;-67
2024/02/22 01:34:29;;;;;;;59.47;34.50;;;;;;;9.39;91.91;98441.00;6205135;22;20011;-69
2024/02/22 01:36:57;;;;;;;56.88;34.80;;;;;;;9.62;91.94;98460.44;6205501;22;20012;-70
2024/02/22 01:39:25;;;;;;;59.33;33.97;;;;;;;9.86;91.84;98473.91;6230375;22;20004;-67
2024/02/22 01:41:50;;;;;;;56.85;33.05;;;;;;;9.82;92.10;98463.78;6229553;22;20004;-70
2024/02/22 01:44:20;;;;;;;53.42;34.65;;;;;;;9.78;92.07;98457.25;6230626;22;20018;-69
2024/02/22 01:46:46;;;;;;;55.58;33.83;;;;;;;9.78;91.83;98467.63;6224903;23;20008;-70
2024/02/22 01:49:11;;;;;;;58.47;35.13;;;;;;;9.53;91.57;98411.19;6229509;22;20744;-69
2024/02/22 01:51:39;;;;;;;56.60;34.33;;;;;;;9.88;90.12;98453.78;6204603;22;20061;-67
2024/02/22 01:54:04;;;;;;;57.35;34.78;;;;;;;9.91;90.61;98440.50;6229181;22;20004;-71
2024/02/22 01:56:30;;;;;;;56.50;34.95;;;;;;;9.96;91.01;98446.88;6204893;22;20709;-68
2024/02/22 01:58:58;;;;;;;57.50;34.55;;;;;;;9.96;90.96;98446.09;6257051;22;20603;-71
2024/02/22 02:01:24;;;;;;;57.90;35.30;;;;;;;9.90;89.66;98437.09;6230189;22;20012;-70
2024/02/22 02:03:54;;;;;;;54.58;35.13;;;;;;;9.87;89.34;98439.97;6257345;22;20130;-69
2024/02/22 02:06:21;;;;;;;54.88;33.47;;;;;;;9.78;89.71;98440.84;6230842;22;20417;-72
2024/02/22 02:08:49;;;;;;;54.95;34.15;;;;;;;9.60;90.46;98422.59;6200176;23;20433;-70
2024/02/22 02:11:14;;;;;;;55.70;33.63;;;;;;;9.81;89.54;98423.19;6229750;22;20336;-68
2024/02/22 02:13:40;;;;;;;55.38;33.72;;;;;;;9.85;88.47;98423.72;6204447;22;20099;-70
2024/02/22 02:16:06;;;;;;;60.05;36.20;;;;;;;9.93;87.93;98418.63;6257402;22;20004;-70
2024/02/22 02:18:31;;;;;;;57.75;34.40;;;;;;;9.65;88.15;98373.66;6229069;22;20020;-70
2024/02/22 02:21:03;;;;;;;60.42;35.10;;;;;;;9.94;88.61;98414.25;6203408;22;20068;-69
2024/02/22 02:23:45;;;;;;;59.53;34.30;;;;;;;9.92;89.64;98411.78;6227898;22;20011;-70
2024/02/22 02:26:10;;;;;;;57.90;34.42;;;;;;;9.88;89.53;98417.44;6203073;22;20011;-68
2024/02/22 02:28:36;;;;;;;60.75;33.72;;;;;;;9.65;89.70;98370.25;6201971;22;20057;-68
2024/02/22 02:31:04;;;;;;;60.05;35.63;;;;;;;9.88;89.89;98413.06;6229322;22;20077;-68
2024/02/22 02:33:29;;;;;;;56.53;32.47;;;;;;;9.97;88.61;98398.38;6228717;22;20004;-68
2024/02/22 02:35:57;;;;;;;54.47;34.45;;;;;;;9.82;89.25;98383.28;6202635;22;20034;-72
2024/02/22 02:38:22;;;;;;;56.13;33.50;;;;;;;9.74;89.10;98366.78;6203640;22;20058;-70
2024/02/22 02:40:47;;;;;;;56.90;35.00;;;;;;;9.84;88.15;98366.72;6203737;22;20075;-70
2024/02/22 02:43:13;;;;;;;57.50;34.65;;;;;;;9.90;87.71;98361.78;6227968;22;20314;-70
2024/02/22 02:45:38;;;;;;;57.83;34.08;;;;;;;9.94;87.98;98373.50;6225593;22;20012;-71
2024/02/22 02:48:06;;;;;;;56.33;33.88;;;;;;;9.90;88.20;98379.16;6197901;22;20012;-70
2024/02/22 02:50:34;;;;;;;55.45;34.17;;;;;;;9.84;88.26;98375.34;6224447;22;20014;-68
2024/02/22 02:53:02;;;;;;;59.53;35.47;;;;;;;9.48;88.10;98323.34;6202610;22;20008;-71
2024/02/22 02:55:27;;;;;;;60.90;35.40;;;;;;;9.78;88.34;98374.16;6202185;22;20019;-70
2024/02/22 02:57:54;;;;;;;61.33;35.65;;;;;;;9.83;88.37;98373.72;6252726;22;20007;-69
2024/02/22 03:00:19;;;;;;;60.80;35.88;;;;;;;9.79;88.18;98356.78;6203595;22;20008;-68
2024/02/22 03:02:45;;;;;;;61.45;35.67;;;;;;;9.51;89.18;98289.31;6195399;23;20077;-70
2024/02/22 03:05:10;;;;;;;57.15;34.53;;;;;;;9.84;87.40;98349.38;6202343;22;20022;-69
2024/02/22 03:07:36;;;;;;;55.67;34.47;;;;;;;9.76;87.98;98346.69;6200358;22;20014;-70
2024/02/22 03:10:02;;;;;;;60.45;35.50;;;;;;;9.69;88.76;98345.63;6202222;22;20011;-69
2024/02/22 03:12:28;;;;;;;56.72;35.63;;;;;;;9.73;87.93;98324.44;6201820;22;20015;-69
2024/02/22 03:14:53;;;;;;;58.10;34.35;;;;;;;9.79;87.23;98313.47;6226138;22;20012;-71
2024/02/22 03:17:21;;;;;;;58.60;33.83;;;;;;;9.84;87.53;98317.38;6201235;22;20020;-68
2024/02/22 03:19:47;;;;;;;59.22;35.25;;;;;;;9.81;88.03;98313.31;6252384;22;20030;-70
2024/02/22 03:22:15;;;;;;;60.05;35.35;;;;;;;9.79;87.57;98315.25;6254483;22;20695;-69
2024/02/22 03:24:41;;;;;;;56.97;34.15;;;;;;;9.55;87.32;98310.63;6227078;22;20007;-70
2024/02/22 03:27:10;;;;;;;58.65;35.85;;;;;;;9.49;87.98;98312.03;6229753;22;20014;-68
2024/02/22 03:29:36;;;;;;;;;;;;;;;9.50;87.90;98311.03;6229418;22;20008;-68
2024/02/22 03:32:04;;;;;;;59.72;33.90;;;;;;;9.27;87.25;98258.72;6229553;22;19907;-67
2024/02/22 03:34:29;;;;;;;59.13;35.92;;;;;;;9.57;87.00;98311.28;6229725;22;20008;-70
2024/02/22 03:36:57;;;;;;;61.50;35.47;;;;;;;9.19;86.44;98254.25;6225926;22;20008;-70
2024/02/22 03:39:22;;;;;;;61.35;35.45;;;;;;;9.62;85.75;98322.88;6202996;22;20122;-71
2024/02/22 03:41:50;;;;;;;59.25;33.88;;;;;;;9.45;84.78;98291.69;6222025;23;20849;-69
2024/02/22 03:44:18;;;;;;;64.78;36.72;;;;;;;9.66;84.48;98332.97;6228050;22;20008;-69
2024/02/22 03:47:01;;;;;;;62.70;36.70;;;;;;;9.55;84.77;98313.22;6229165;22;20020;-69
2024/02/22 03:49:27;;;;;;;68.47;37.55;;;;;;;9.78;85.01;98314.44;6230119;22;20141;-68
2024/02/22 03:51:55;;;;;;;66.30;37.75;;;;;;;9.65;87.56;98303.56;6202516;22;20106;-70
2024/02/22 03:54:21;;;;;;;63.78;37.80;;;;;;;9.66;90.23;98307.81;6255511;22;20008;-70
2024/02/22 03:56:48;;;;;;;69.18;37.92;;;;;;;9.75;91.82;98311.31;6227295;22;20605;-71
2024/02/22 03:59:16;;;;;;;66.05;37.15;;;;;;;9.75;96.45;98306.94;6226121;22;20008;-71
2024/02/22 04:01:41;;;;;;;70.47;39.50;;;;;;;9.39;100.00;98282.69;6222093;23;20012;-72
2024/02/22 04:04:07;;;;;;;70.32;39.50;;;;;;;9.53;100.00;98317.75;6198620;22;20011;-71
2024/02/22 04:06:33;;;;;;;70.53;41.03;;;;;;;9.51;100.00;98293.69;6202736;22;20102;-71
2024/02/22 04:08:59;;;;;;;73.63;40.70;;;;;;;9.68;100.00;98305.88;6217877;22;20015;-71
2024/02/22 04:11:27;;;;;;;69.95;39.75;;;;;;;9.64;100.00;98296.75;6200525;22;20090;-67
2024/02/22 04:13:52;;;;;;;69.50;39.33;;;;;;;9.58;100.00;98302.53;6198555;22;20015;-71
2024/02/22 04:16:18;;;;;;;69.53;39.78;;;;;;;9.54;100.00;98306.38;6225313;22;19999;-70
2024/02/22 04:18:43;;;;;;;70.15;41.00;;;;;;;9.48;100.00;98312.97;6197050;22;20000;-69
2024/02/22 04:21:09;;;;;;;77.53;43.50;;;;;;;9.62;100.00;98317.66;6200117;22;20098;-70
2024/02/22 04:23:35;;;;;;;69.10;40.22;;;;;;;9.65;100.00;98306.16;6198579;22;20027;-75
2024/02/22 04:26:00;;;;;;;73.28;41.05;;;;;;;9.74;100.00;98305.28;6255893;22;20007;-72
2024/02/22 04:28:26;;;;;;;73.28;41.40;;;;;;;9.71;100.00;98297.81;6227527;22;20340;-71
2024/02/22 04:30:53;;;;;;;74.35;41.70;;;;;;;9.72;100.00;98304.63;6229355;22;20031;-71
2024/02/22 04:33:20;;;;;;;74.68;42.55;;;;;;;9.78;100.00;98295.44;6228701;22;20125;-71
2024/02/22 04:35:46;;;;;;;74.78;42.65;;;;;;;9.51;100.00;98240.00;6214035;23;20019;-75
2024/02/22 04:38:11;;;;;;;76.07;43.03;;;;;;;9.79;100.00;98297.06;6200487;22;20846;-68
2024/02/22 04:40:37;;;;;;;74.55;41.70;;;;;;;9.78;100.00;98292.84;6203357;22;20026;-71
2024/02/22 04:43:03;;;;;;;74.60;44.05;;;;;;;9.47;100.00;98230.06;6203119;22;20066;-74
2024/02/22 04:45:30;;;;;;;74.32;41.40;;;;;;;9.64;100.00;98250.03;6229236;22;20399;-70
2024/02/22 04:48:00;;;;;;;74.80;42.47;;;;;;;9.81;100.00;98274.38;6201573;22;20274;-74
2024/02/22 04:50:25;;;;;;;75.55;42.53;;;;;;;9.68;100.00;98269.53;6256960;22;20791;-73
2024/02/22 04:52:52;;;;;;;73.38;41.75;;;;;;;9.62;100.00;98267.53;6227828;22;20010;-74
2024/02/22 04:55:22;;;;;;;72.15;41.28;;;;;;;9.55;100.00;98266.50;6204039;22;20097;-75
2024/02/22 04:57:50;;;;;;;76.25;42.47;;;;;;;9.48;100.00;98266.25;6226555;22;20073;-75
2024/02/22 05:00:18;;;;;;;75.82;43.05;;;;;;;9.18;100.00;98256.97;6204383;22;20008;-73
2024/02/22 05:02:44;;;;;;;81.90;43.15;;;;;;;9.14;100.00;98259.06;6204254;22;20014;-73
2024/02/22 05:05:10;;;;;;;76.75;43.53;;;;;;;8.99;100.00;98257.91;6201188;22;20012;-71
2024/02/22 05:07:36;;;;;;;80.43;43.17;;;;;;;8.80;100.00;98257.03;6204120;22;20233;-74
2024/02/22 05:10:03;;;;;;;82.22;44.10;;;;;;;8.65;100.00;98248.06;6226146;22;20525;-72
2024/02/22 05:12:32;;;;;;;81.70;44.53;;;;;;;8.72;100.00;98243.94;6229013;22;20004;-72
2024/02/22 05:14:58;;;;;;;80.63;44.25;;;;;;;8.63;100.00;98240.44;6203048;22;20184;-70
2024/02/22 05:17:25;;;;;;;86.75;46.38;;;;;;;8.28;100.00;98199.59;6225851;22;20620;-76
2024/02/22 05:19:51;;;;;;;84.90;45.95;;;;;;;8.48;100.00;98236.66;6231113;22;20024;-73
2024/02/22 05:22:16;;;;;;;86.90;45.97;;;;;;;8.35;100.00;98230.94;6201784;22;20043;-72
2024/02/22 05:24:44;;;;;;;88.85;46.97;;;;;;;8.26;100.00;98214.44;6229689;22;20011;-71
2024/02/22 05:27:11;;;;;;;84.28;44.90;;;;;;;8.44;100.00;98225.75;6201191;22;20020;-71
2024/02/22 05:29:37;;;;;;;90.68;45.55;;;;;;;8.30;100.00;98215.81;6229757;22;20425;-75
2024/02/22 05:32:03;;;;;;;87.47;46.00;;;;;;;8.22;100.00;98207.94;6227439;22;20062;-74
2024/02/22 05:34:29;;;;;;;93.50;48.63;;;;;;;8.20;100.00;98213.25;6201729;22;20023;-74
2024/02/22 05:36:57;;;;;;;94.68;47.65;;;;;;;8.16;100.00;98211.06;6229969;22;20029;-72
2024/02/22 05:39:27;;;;;;;91.60;47.83;;;;;;;8.13;100.00;98219.94;6200885;22;20011;-72
2024/02/22 05:41:55;;;;;;;94.80;48.67;;;;;;;8.12;100.00;98225.25;6204002;22;20051;-70
2024/02/22 05:44:20;;;;;;;93.53;49.15;;;;;;;7.87;100.00;98191.22;6203126;22;20035;-72
2024/02/22 05:46:45;;;;;;;97.63;49.67;;;;;;;8.15;100.00;98218.00;6197016;23;20091;-71
2024/02/22 05:49:11;;;;;;;100.88;48.70;;;;;;;8.13;100.00;98232.88;6227161;22;20706;-73
2024/02/22 05:51:40;;;;;;;93.75;49.85;;;;;;;7.97;100.00;98232.63;6226215;22;20507;-70
2024/02/22 05:54:10;;;;;;;97.93;51.50;;;;;;;7.97;100.00;98212.72;6203730;22;20011;-73
2024/02/22 05:56:35;;;;;;;92.78;48.92;;;;;;;8.19;100.00;98197.84;6228264;22;20505;-71
2024/02/22 05:59:03;;;;;;;106.53;50.88;;;;;;;8.12;100.00;98192.38;6257130;22;20534;-71
2024/02/22 06:01:31;;;;;;;105.15;52.55;;;;;;;8.19;100.00;98197.84;6227004;22;20028;-71
2024/02/22 06:03:59;;;;;;;106.35;53.20;;;;;;;8.10;100.00;98176.16;6203051;22;20011;-70
2024/02/22 06:06:24;;;;;;;106.97;50.63;;;;;;;8.05;100.00;98175.78;6227495;22;20061;-67
2024/02/22 06:08:49;;;;;;;106.63;53.35;;;;;;;8.00;100.00;98176.19;6225433;22;20008;-68
2024/02/22 06:11:18;;;;;;;103.22;51.83;;;;;;;8.05;100.00;98168.03;6226403;22;20146;-67
2024/02/22 06:13:43;;;;;;;100.47;50.60;;;;;;;8.01;100.00;98157.13;6200335;22;20035;-69
2024/02/22 06:16:09;;;;;;;112.50;53.45;;;;;;;7.94;100.00;98150.03;6228352;22;20047;-69
2024/02/22 06:18:36;;;;;;;100.93;49.97;;;;;;;8.02;100.00;98155.34;6227243;22;20077;-70
2024/02/22 06:21:02;;;;;;;97.82;49.67;;;;;;;8.05;100.00;98158.47;6253903;22;20012;-71
2024/02/22 06:23:28;;;;;;;101.95;50.45;;;;;;;8.09;100.00;98166.78;6201071;22;20049;-70
2024/02/22 06:25:55;;;;;;;98.80;48.58;;;;;;;7.98;100.00;98159.19;6202767;22;20012;-67
2024/02/22 06:28:20;;;;;;;100.82;49.63;;;;;;;7.86;100.00;98171.44;6229380;22;20008;-68
2024/02/22 06:30:48;;;;;;;90.32;44.42;;;;;;;7.81;100.00;98169.28;6225783;22;20008;-71
2024/02/22 06:33:16;;;;;;;91.30;46.90;;;;;;;7.89;100.00;98176.34;6201170;22;20011;-70
2024/02/22 06:35:41;;;;;;;104.75;49.30;;;;;;;7.89;100.00;98174.56;6224871;22;20068;-69
2024/02/22 06:38:07;;;;;;;98.28;49.97;;;;;;;7.87;100.00;98180.84;6191992;22;20016;-70
2024/02/22 06:40:35;;;;;;;98.57;47.90;;;;;;;7.84;100.00;98189.69;6198334;22;20077;-70
2024/02/22 06:43:00;;;;;;;93.50;44.40;;;;;;;7.70;100.00;98180.59;6226174;22;20375;-71
2024/02/22 06:45:31;;;;;;;88.72;44.63;;;;;;;7.74;100.00;98180.31;6226271;22;20015;-74
2024/02/22 06:47:58;;;;;;;90.40;43.72;;;;;;;7.58;100.00;98157.59;6201548;22;20123;-71
2024/02/22 06:50:23;;;;;;;90.57;43.83;;;;;;;7.45;100.00;98124.22;6202276;22;20083;-73
2024/02/22 06:52:54;;;;;;;93.72;45.03;;;;;;;7.70;100.00;98144.38;6192184;23;20011;-71
2024/02/22 06:55:19;;;;;;;87.97;42.75;;;;;;;7.80;100.00;98159.88;6193980;23;20012;-69
2024/02/22 06:57:45;;;;;;;81.93;42.95;;;;;;;7.75;100.00;98151.69;6219014;23;20011;-74
2024/02/22 07:00:14;;;;;;;86.03;43.00;;;;;;;7.84;100.00;98150.06;6224402;22;20012;-69
2024/02/22 07:02:41;;;;;;;88.97;42.63;;;;;;;7.86;100.00;98148.97;6197629;22;20101;-71
2024/02/22 07:05:09;;;;;;;76.35;38.20;;;;;;;7.95;100.00;98152.50;6225064;22;20007;-71
2024/02/22 07:07:35;;;;;;;78.32;38.30;;;;;;;8.00;100.00;98141.72;6200443;22;20627;-71
2024/02/22 07:10:00;;;;;;;74.55;38.05;;;;;;;7.71;100.00;98106.34;6223841;22;20083;-70
2024/02/22 07:12:26;;;;;;;80.20;39.83;;;;;;;8.13;100.00;98154.38;6226361;22;20004;-71
2024/02/22 07:14:53;;;;;;;77.93;38.20;;;;;;;7.97;100.00;98150.56;6251928;22;20046;-66
2024/02/22 07:17:19;;;;;;;81.93;40.33;;;;;;;8.06;100.00;98146.34;6219724;22;20024;-72
2024/02/22 07:19:44;;;;;;;79.80;38.13;;;;;;;8.01;100.00;98143.34;6224809;22;20540;-73
2024/02/22 07:22:10;;;;;;;75.07;38.83;;;;;;;7.91;100.00;98125.25;6222098;22;20032;-71
2024/02/22 07:24:35;;;;;;;78.50;39.63;;;;;;;7.91;100.00;98122.66;6226481;22;20540;-72
2024/02/22 07:27:03;;;;;;;68.30;35.33;;;;;;;8.03;100.00;98120.72;6225049;22;20103;-71
2024/02/22 07:29:31;;;;;;;69.20;35.42;;;;;;;8.03;100.00;98142.28;6199906;22;20026;-76
2024/02/22 07:31:57;;;;;;;82.93;39.53;;;;;;;7.83;100.00;98144.09;6221442;22;20086;-73
2024/02/22 07:34:27;;;;;;;75.85;38.35;;;;;;;7.86;100.00;98137.81;6254277;22;20019;-69
2024/02/22 07:36:53;;;;;;;77.57;37.47;;;;;;;7.86;100.00;98120.50;6195337;22;20023;-78
2024/02/22 07:39:18;;;;;;;78.50;39.60;;;;;;;7.66;100.00;98067.13;6223331;22;20521;-75
2024/02/22 07:41:43;;;;;;;75.65;36.63;;;;;;;7.88;100.00;98110.84;6226164;22;20011;-72
2024/02/22 07:44:11;;;;;;;74.18;36.67;;;;;;;7.94;100.00;98118.97;6252377;22;20007;-74
2024/02/22 07:46:42;;;;;;;78.75;37.40;;;;;;;7.95;100.00;98118.03;6224063;22;20127;-73
2024/02/22 07:49:07;;;;;;;79.25;38.53;;;;;;;7.73;100.00;98062.22;6197754;22;20066;-74
2024/02/22 07:51:34;;;;;;;78.65;37.85;;;;;;;8.02;100.00;98100.97;6223079;22;20438;-76
2024/02/22 07:54:00;;;;;;;72.97;36.42;;;;;;;8.09;100.00;98118.41;6224654;22;20008;-74
2024/02/22 07:56:25;;;;;;;72.78;35.38;;;;;;;8.08;100.00;98110.75;6201933;22;20155;-72
2024/02/22 07:58:53;;;;;;;73.85;37.20;;;;;;;7.64;100.00;98050.94;6225739;22;21040;-68
2024/02/22 08:01:21;;;;;;;79.30;40.17;;;;;;;7.99;100.00;98101.25;6194313;23;20628;-70
2024/02/22 08:03:49;;;;;;;74.03;36.78;;;;;;;8.07;100.00;98101.38;6194682;23;20118;-73
2024/02/22 08:06:15;;;;;;;73.40;36.85;;;;;;;8.09;100.00;98096.88;6227618;22;20703;-72
2024/02/22 08:08:41;;;;;;;69.07;33.53;;;;;;;8.10;100.00;98095.91;6199833;22;20008;-66
2024/02/22 08:11:10;;;;;;;69.93;36.08;;;;;;;8.17;100.00;98090.97;6203272;22;20012;-70
2024/02/22 08:13:40;;;;;;;74.22;36.95;;;;;;;8.12;100.00;98088.00;6202469;22;20498;-73
2024/02/22 08:16:07;;;;;;;71.03;36.47;;;;;;;8.16;100.00;98092.75;6203717;22;20007;-76
2024/02/22 08:18:34;;;;;;;71.20;36.33;;;;;;;8.08;100.00;98071.91;6203485;22;20011;-70
2024/02/22 08:21:00;;;;;;;77.80;38.65;;;;;;;7.91;100.00;98039.84;6200216;22;20008;-72
2024/02/22 08:23:28;;;;;;;74.85;37.70;;;;;;;8.21;100.00;98082.78;6202934;22;20041;-70
2024/02/22 08:25:54;;;;;;;79.53;41.08;;;;;;;8.19;100.00;98086.47;6229270;22;20472;-71
2024/02/22 08:28:25;;;;;;;77.80;36.67;;;;;;;8.30;100.00;98085.47;6203810;22;20424;-75
2024/02/22 08:30:54;;;;;;;72.15;36.30;;;;;;;8.26;100.00;98088.34;6227550;22;20008;-73
2024/02/22 08:33:20;;;;;;;69.05;34.63;;;;;;;8.09;100.00;98042.50;6197280;22;20014;-69
2024/02/22 08:35:49;;;;;;;69.70;35.30;;;;;;;8.37;100.00;98083.94;6202406;22;20113;-71
2024/02/22 08:38:14;;;;;;;66.40;35.15;;;;;;;8.31;100.00;98076.75;6251755;22;20078;-73
2024/02/22 08:40:42;;;;;;;69.75;34.83;;;;;;;8.41;100.00;98093.88;6227151;22;20055;-71
2024/02/22 08:43:08;;;;;;;66.60;33.45;;;;;;;8.39;100.00;98084.63;6225212;22;20049;-76
2024/02/22 08:45:34;;;;;;;67.50;34.60;;;;;;;8.25;100.00;98063.41;6201875;22;20403;-72
2024/02/22 08:47:59;;;;;;;70.30;36.03;;;;;;;8.30;100.00;98093.25;6200195;22;20739;-73
2024/02/22 08:50:25;;;;;;;69.38;36.45;;;;;;;8.23;100.00;98080.88;6202556;22;20027;-73
2024/02/22 08:52:53;;;;;;;72.63;36.60;;;;;;;8.05;100.00;98023.84;6226679;22;20008;-69
2024/02/22 08:55:18;;;;;;;72.88;35.85;;;;;;;8.19;100.00;98056.19;6253583;22;20112;-74
2024/02/22 08:57:46;;;;;;;70.20;36.08;;;;;;;8.05;100.00;98004.91;6227368;22;20424;-68
2024/02/22 09:00:12;;;;;;;66.90;34.63;;;;;;;8.44;100.00;98041.78;6201590;22;20019;-75
2024/02/22 09:02:38;;;;;;;72.40;36.80;;;;;;;8.51;100.00;98041.25;6200211;22;20023;-73
2024/02/22 09:05:05;;;;;;;73.43;38.30;;;;;;;8.42;100.00;98040.31;6226988;22;20007;-70
2024/02/22 09:07:31;;;;;;;71.65;38.03;;;;;;;8.39;100.00;98048.34;6205552;22;20019;-74
2024/02/22 09:09:57;;;;;;;72.38;37.17;;;;;;;8.40;100.00;98062.94;6254653;22;20070;-72
2024/02/22 09:12:22;;;;;;;74.80;38.22;;;;;;;8.09;100.00;98014.00;6230494;22;20400;-73
2024/02/22 09:14:48;;;;;;;74.28;36.63;;;;;;;8.51;100.00;98067.16;6199605;22;20458;-71
2024/02/22 09:17:14;;;;;;;68.75;36.22;;;;;;;8.43;100.00;98060.91;6227256;22;20654;-71
2024/02/22 09:19:39;;;;;;;72.10;35.47;;;;;;;8.42;100.00;98059.25;6226520;22;20034;-71
2024/02/22 09:22:05;;;;;;;69.93;36.00;;;;;;;8.35;100.00;98047.00;6225024;22;20128;-71
2024/02/22 09:24:30;;;;;;;65.07;32.10;;;;;;;8.47;100.00;98064.03;6227416;22;20095;-74
2024/02/22 09:27:00;;;;;;;67.63;34.00;;;;;;;8.51;100.00;98060.19;6198835;22;20008;-73
2024/02/22 09:29:26;;;;;;;59.97;31.63;;;;;;;8.41;100.00;98049.00;6227351;22;20027;-69
2024/02/22 09:31:57;;;;;;;62.00;32.20;;;;;;;8.50;100.00;98049.97;6227996;22;20021;-73
2024/02/22 09:34:25;;;;;;;65.10;34.03;;;;;;;8.50;100.00;98048.16;6196215;22;20646;-74
2024/02/22 09:36:51;;;;;;;62.53;34.25;;;;;;;8.43;100.00;98047.97;6201018;22;20016;-74
2024/02/22 09:39:20;;;;;;;59.78;31.40;;;;;;;8.45;100.00;98058.16;6225013;22;20108;-74
2024/02/22 09:41:48;;;;;;;68.43;32.97;;;;;;;8.49;100.00;98046.56;6229014;22;20528;-70
2024/02/22 09:44:13;;;;;;;61.25;32.95;;;;;;;8.20;100.00;98002.66;6224765;22;20416;-69
2024/02/22 09:46:39;;;;;;;61.65;32.13;;;;;;;8.62;100.00;98048.81;6228225;22;20043;-73
2024/02/22 09:49:07;;;;;;;61.80;32.80;;;;;;;8.33;100.00;97994.53;6226075;22;20074;-69
2024/02/22 09:51:36;;;;;;;57.65;31.08;;;;;;;8.35;100.00;98003.78;6227828;22;20010;-72
2024/02/22 09:54:04;;;;;;;54.03;29.83;;;;;;;8.65;100.00;98053.66;6202348;22;20008;-71
2024/02/22 09:56:29;;;;;;;60.58;30.90;;;;;;;8.54;100.00;98061.66;6227775;22;20007;-70
2024/02/22 09:58:54;;;;;;;57.17;29.30;;;;;;;8.62;100.00;98048.81;6227331;22;20085;-71
2024/02/22 10:01:20;;;;;;;59.53;31.17;;;;;;;8.56;100.00;98029.47;6201029;22;20021;-70
2024/02/22 10:03:48;;;;;;;54.83;27.75;;;;;;;8.25;100.00;97954.63;6197329;23;20019;-73
2024/02/22 10:06:17;;;;;;;60.22;30.38;;;;;;;8.77;100.00;98028.38;6198725;22;20016;-70
2024/02/22 10:08:44;;;;;;;59.60;32.00;;;;;;;8.83;100.00;98030.38;6198820;22;20749;-69
2024/02/22 10:11:12;;;;;;;55.25;30.63;;;;;;;8.78;100.00;98037.75;6227496;22;20014;-69
2024/02/22 10:13:37;;;;;;;63.25;32.45;;;;;;;8.65;100.00;98028.59;6201810;22;20012;-69
2024/02/22 10:16:13;;;;;;;61.95;31.83;;;;;;;8.49;100.00;97993.91;6201156;22;20061;-69
2024/02/22 10:18:39;;;;;;;57.92;29.90;;;;;;;8.61;100.00;98014.28;6202270;22;20015;-73
2024/02/22 10:21:12;;;;;;;56.97;31.77;;;;;;;8.50;100.00;97993.75;6228526;22;20019;-73
2024/02/22 10:23:37;;;;;;;59.92;31.38;;;;;;;8.83;100.00;98041.56;6254489;22;20140;-69
2024/02/22 10:26:09;;;;;;;59.30;31.65;;;;;;;8.75;100.00;98040.66;6227221;22;20876;-67
2024/02/22 10:28:34;;;;;;;62.50;32.88;;;;;;;8.84;100.00;98032.81;6227909;22;20455;-71
2024/02/22 10:31:04;;;;;;;56.97;31.48;;;;;;;9.06;100.00;98030.75;6227979;22;20012;-68
2024/02/22 10:33:30;;;;;;;54.75;29.50;;;;;;;8.97;100.00;98016.09;6227726;22;20007;-71
2024/02/22 10:35:57;;;;;;;55.20;29.73;;;;;;;8.94;100.00;98001.63;6224040;22;20333;-72
2024/02/22 10:38:23;;;;;;;57.28;30.65;;;;;;;9.12;100.00;98022.34;6227805;22;20035;-69
2024/02/22 10:40:49;;;;;;;60.55;31.63;;;;;;;9.13;100.00;98013.63;6198340;22;20059;-69
2024/02/22 10:43:15;;;;;;;56.80;30.67;;;;;;;9.08;100.00;98004.66;6228750;22;20008;-71
2024/02/22 10:45:43;;;;;;;56.90;32.03;;;;;;;9.01;100.00;98012.22;6202909;22;20071;-67
2024/02/22 10:48:10;;;;;;;57.45;31.17;;;;;;;9.18;100.00;98014.00;6230915;22;20008;-68
2024/02/22 10:50:36;;;;;;;66.63;31.52;;;;;;;9.01;100.00;97979.31;6227558;22;20022;-69
2024/02/22 10:53:05;;;;;;;58.05;29.73;;;;;;;9.29;100.00;98006.91;6205158;22;20008;-71
2024/02/22 10:55:34;;;;;;;55.45;30.33;;;;;;;9.19;100.00;97989.66;6228408;22;20797;-72
2024/02/22 10:58:00;;;;;;;55.67;30.45;;;;;;;9.13;100.00;97979.09;6226494;22;20007;-71
2024/02/22 11:00:26;;;;;;;55.03;30.13;;;;;;;9.06;100.00;97968.50;6201640;22;20008;-69
2024/02/22 11:02:54;;;;;;;53.58;30.38;;;;;;;9.09;100.00;97941.44;6201825;22;20007;-70
2024/02/22 11:05:19;;;;;;;54.17;30.83;;;;;;;9.25;100.00;97949.34;6205387;22;20007;-70
2024/02/22 11:07:49;;;;;;;52.22;28.85;;;;;;;9.16;100.00;97929.50;6226638;22;20085;-71
2024/02/22 11:10:14;;;;;;;;;;;;;;;9.35;100.00;97934.50;6200359;22;20018;-67
2024/02/22 11:12:44;;;;;;;49.63;27.27;;;;;;;9.63;100.00;97936.91;6224780;22;19907;-68
2024/02/22 11:15:10;;;;;;;54.00;29.35;;;;;;;9.67;100.00;97935.63;6201132;22;20307;-69
2024/02/22 11:17:49;;;;;;;51.42;29.23;;;;;;;9.72;100.00;97941.16;6227634;22;20925;-70